createdAt,value
2023-04-13T00:00:27.308Z,996.20
2023-04-13T00:01:31.594Z,996.18
2023-04-13T00:02:35.889Z,996.21
2023-04-13T00:03:40.450Z,996.21
2023-04-13T00:04:44.420Z,996.24
2023-04-13T00:05:49.044Z,996.31
2023-04-13T00:06:52.948Z,996.30
2023-04-13T00:07:57.302Z,996.32
2023-04-13T00:09:01.642Z,996.32
2023-04-13T00:10:08.865Z,996.36
2023-04-13T00:11:12.270Z,996.37
2023-04-13T00:12:16.520Z,996.38
2023-04-13T00:13:20.813Z,996.38
2023-04-13T00:14:25.044Z,996.32
2023-04-13T00:15:29.354Z,996.32
2023-04-13T00:16:33.667Z,996.33
2023-04-13T00:17:37.885Z,996.35
2023-04-13T00:18:42.174Z,996.36
2023-04-13T00:19:46.373Z,996.36
2023-04-13T00:20:50.718Z,996.31
2023-04-13T00:21:55.039Z,996.28
2023-04-13T00:22:59.327Z,996.28
2023-04-13T00:24:03.561Z,996.32
2023-04-13T00:25:07.985Z,996.29
2023-04-13T00:26:12.173Z,996.28
2023-04-13T00:27:16.456Z,996.27
2023-04-13T00:28:20.690Z,996.29
2023-04-13T00:29:30.987Z,996.29
2023-04-13T00:30:34.098Z,996.27
2023-04-13T00:31:38.201Z,996.27
2023-04-13T00:32:42.564Z,996.26
2023-04-13T00:33:46.899Z,996.28
2023-04-13T00:34:51.182Z,996.31
2023-04-13T00:35:55.489Z,996.31
2023-04-13T00:37:02.782Z,996.30
2023-04-13T00:38:06.137Z,996.31
2023-04-13T00:39:10.434Z,996.32
2023-04-13T00:40:14.704Z,996.34
2023-04-13T00:41:18.999Z,996.37
2023-04-13T00:42:23.277Z,996.40
2023-04-13T00:43:27.473Z,996.43
2023-04-13T00:44:31.821Z,996.45
2023-04-13T00:45:36.109Z,996.45
2023-04-13T00:46:40.501Z,996.45
2023-04-13T00:47:44.709Z,996.49
2023-04-13T00:48:48.927Z,996.50
2023-04-13T00:49:53.189Z,996.53
2023-04-13T00:50:57.441Z,996.54
2023-04-13T00:52:01.746Z,996.55
2023-04-13T00:53:08.163Z,996.54
2023-04-13T00:54:10.177Z,996.53
2023-04-13T00:55:14.495Z,996.52
2023-04-13T00:56:18.736Z,996.51
2023-04-13T00:57:23.054Z,996.50
2023-04-13T00:58:27.255Z,996.47
2023-04-13T00:59:31.569Z,996.48
2023-04-13T01:00:35.934Z,996.48
2023-04-13T01:01:40.207Z,996.49
2023-04-13T01:02:44.736Z,996.49
2023-04-13T01:03:48.666Z,996.46
2023-04-13T01:04:53.079Z,996.46
2023-04-13T01:05:57.205Z,996.45
2023-04-13T01:07:01.524Z,996.47
2023-04-13T01:08:05.784Z,996.46
2023-04-13T01:09:10.106Z,996.48
2023-04-13T01:10:14.434Z,996.52
2023-04-13T01:11:18.662Z,996.52
2023-04-13T01:12:22.899Z,996.53
2023-04-13T01:13:27.236Z,996.55
2023-04-13T01:14:31.572Z,996.54
2023-04-13T01:15:35.927Z,996.51
2023-04-13T01:16:40.106Z,996.45
2023-04-13T01:17:50.430Z,996.44
2023-04-13T01:18:53.342Z,996.47
2023-04-13T01:19:57.622Z,996.45
2023-04-13T01:21:01.793Z,996.48
2023-04-13T01:22:06.136Z,996.50
2023-04-13T01:23:10.399Z,996.53
2023-04-13T01:24:14.599Z,996.54
2023-04-13T01:25:18.869Z,996.59
2023-04-13T01:26:23.136Z,996.62
2023-04-13T01:27:27.420Z,996.68
2023-04-13T01:28:31.579Z,996.70
2023-04-13T01:29:35.913Z,996.76
2023-04-13T01:30:40.164Z,996.80
2023-04-13T01:31:44.552Z,996.84
2023-04-13T01:32:48.709Z,996.86
2023-04-13T01:33:53.039Z,996.90
2023-04-13T01:34:57.326Z,996.95
2023-04-13T01:36:01.586Z,996.98
2023-04-13T01:37:05.874Z,997.00
2023-04-13T01:38:13.140Z,997.00
2023-04-13T01:39:16.408Z,997.05
2023-04-13T01:40:20.710Z,997.07
2023-04-13T01:41:24.910Z,997.12
2023-04-13T01:42:29.144Z,997.12
2023-04-13T01:43:33.519Z,997.14
2023-04-13T01:44:37.693Z,997.17
2023-04-13T01:45:41.963Z,997.16
2023-04-13T01:46:46.554Z,997.16
2023-04-13T01:47:51.569Z,997.19
2023-04-13T01:48:58.484Z,997.21
2023-04-13T01:50:01.750Z,997.23
2023-04-13T01:51:06.043Z,997.26
2023-04-13T01:52:10.258Z,997.27
2023-04-13T01:53:14.545Z,997.27
2023-04-13T01:54:18.794Z,997.26
2023-04-13T01:55:23.183Z,997.27
2023-04-13T01:56:27.329Z,997.32
2023-04-13T01:57:31.635Z,997.34
2023-04-13T01:58:35.843Z,997.35
2023-04-13T01:59:40.136Z,997.41
2023-04-13T02:00:44.486Z,997.45
2023-04-13T02:01:48.721Z,997.49
2023-04-13T02:02:53.194Z,997.51
2023-04-13T02:03:57.958Z,997.57
2023-04-13T02:05:01.579Z,997.58
2023-04-13T02:06:05.788Z,997.68
2023-04-13T02:07:10.043Z,997.71
2023-04-13T02:08:14.453Z,997.74
2023-04-13T02:09:18.727Z,997.73
2023-04-13T02:10:23.051Z,997.69
2023-04-13T02:11:27.255Z,997.70
2023-04-13T02:12:31.470Z,997.69
2023-04-13T02:13:35.718Z,997.70
2023-04-13T02:14:40.128Z,997.77
2023-04-13T02:15:47.345Z,997.79
2023-04-13T02:16:50.829Z,997.83
2023-04-13T02:17:54.968Z,997.86
2023-04-13T02:18:59.218Z,997.86
2023-04-13T02:20:03.441Z,997.86
2023-04-13T02:21:07.753Z,997.83
2023-04-13T02:22:11.962Z,997.83
2023-04-13T02:23:16.248Z,997.82
2023-04-13T02:24:20.471Z,997.83
2023-04-13T02:25:24.827Z,997.81
2023-04-13T02:26:29.025Z,997.81
2023-04-13T02:27:33.330Z,997.82
2023-04-13T02:28:37.419Z,997.80
2023-04-13T02:29:41.716Z,997.78
2023-04-13T02:30:45.979Z,997.76
2023-04-13T02:31:50.295Z,997.78
2023-04-13T02:32:54.528Z,997.74
2023-04-13T02:33:59.132Z,997.74
2023-04-13T02:35:03.037Z,997.75
2023-04-13T02:36:07.317Z,997.75
2023-04-13T02:37:11.631Z,997.78
2023-04-13T02:38:15.832Z,997.81
2023-04-13T02:39:20.141Z,997.79
2023-04-13T02:40:24.345Z,997.83
2023-04-13T02:41:28.606Z,997.86
2023-04-13T02:42:32.884Z,997.92
2023-04-13T02:43:37.139Z,997.95
2023-04-13T02:44:41.469Z,998.02
2023-04-13T02:45:45.740Z,998.09
2023-04-13T02:46:49.963Z,998.12
2023-04-13T02:47:54.254Z,998.16
2023-04-13T02:48:58.419Z,998.18
2023-04-13T02:50:02.694Z,998.19
2023-04-13T02:51:07.018Z,998.27
2023-04-13T02:52:11.257Z,998.30
2023-04-13T02:53:15.519Z,998.29
2023-04-13T02:54:19.706Z,998.32
2023-04-13T02:55:24.035Z,998.30
2023-04-13T02:56:28.432Z,998.30
2023-04-13T02:57:32.485Z,998.28
2023-04-13T02:58:36.821Z,998.30
2023-04-13T02:59:41.044Z,998.32
2023-04-13T03:00:45.322Z,998.36
2023-04-13T03:01:49.796Z,998.37
2023-04-13T03:02:53.811Z,998.35
2023-04-13T03:03:58.350Z,998.34
2023-04-13T03:05:08.376Z,998.33
2023-04-13T03:06:11.254Z,998.34
2023-04-13T03:07:15.490Z,998.36
2023-04-13T03:08:19.743Z,998.37
2023-04-13T03:09:26.975Z,998.41
2023-04-13T03:10:30.290Z,998.42
2023-04-13T03:11:34.578Z,998.41
2023-04-13T03:12:38.856Z,998.43
2023-04-13T03:13:43.048Z,998.44
2023-04-13T03:14:47.364Z,998.45
2023-04-13T03:15:51.525Z,998.45
2023-04-13T03:16:55.860Z,998.47
2023-04-13T03:18:00.217Z,998.50
2023-04-13T03:19:04.369Z,998.49
2023-04-13T03:20:08.635Z,998.52
2023-04-13T03:21:12.822Z,998.53
2023-04-13T03:22:17.149Z,998.54
2023-04-13T03:23:21.328Z,998.56
2023-04-13T03:24:25.700Z,998.59
2023-04-13T03:25:31.872Z,998.62
2023-04-13T03:26:34.174Z,998.66
2023-04-13T03:27:38.350Z,998.68
2023-04-13T03:28:42.626Z,998.70
2023-04-13T03:29:46.921Z,998.68
2023-04-13T03:30:51.175Z,998.67
2023-04-13T03:31:55.492Z,998.66
2023-04-13T03:32:59.717Z,998.66
2023-04-13T03:34:03.977Z,998.65
2023-04-13T03:35:08.160Z,998.64
2023-04-13T03:36:12.370Z,998.67
2023-04-13T03:37:16.712Z,998.68
2023-04-13T03:38:20.816Z,998.67
2023-04-13T03:39:25.187Z,998.68
2023-04-13T03:40:29.437Z,998.65
2023-04-13T03:41:33.715Z,998.65
2023-04-13T03:42:37.893Z,998.63
2023-04-13T03:43:42.169Z,998.60
2023-04-13T03:44:46.435Z,998.59
2023-04-13T03:45:50.767Z,998.58
2023-04-13T03:46:55.008Z,998.55
2023-04-13T03:47:59.341Z,998.56
2023-04-13T03:49:03.455Z,998.53
2023-04-13T03:50:07.690Z,998.49
2023-04-13T03:51:12.065Z,998.46
2023-04-13T03:52:16.343Z,998.43
2023-04-13T03:53:20.602Z,998.41
2023-04-13T03:54:24.806Z,998.40
2023-04-13T03:55:35.159Z,998.39
2023-04-13T03:56:37.974Z,998.40
2023-04-13T03:57:42.120Z,998.44
2023-04-13T03:58:46.375Z,998.45
2023-04-13T03:59:50.693Z,998.45
2023-04-13T04:00:54.909Z,998.44
2023-04-13T04:01:59.217Z,998.46
2023-04-13T04:03:03.450Z,998.49
2023-04-13T04:04:07.945Z,998.52
2023-04-13T04:05:11.975Z,998.56
2023-04-13T04:06:16.245Z,998.57
2023-04-13T04:07:20.426Z,998.59
2023-04-13T04:08:24.630Z,998.60
2023-04-13T04:09:28.877Z,998.61
2023-04-13T04:10:33.236Z,998.62
2023-04-13T04:11:37.475Z,998.61
2023-04-13T04:12:41.686Z,998.62
2023-04-13T04:13:45.904Z,998.64
2023-04-13T04:14:50.157Z,998.65
2023-04-13T04:15:54.475Z,998.64
2023-04-13T04:17:01.691Z,998.67
2023-04-13T04:18:05.204Z,998.68
2023-04-13T04:19:09.288Z,998.72
2023-04-13T04:20:13.575Z,998.68
2023-04-13T04:21:17.700Z,998.67
2023-04-13T04:22:21.945Z,998.66
2023-04-13T04:23:26.058Z,998.66
2023-04-13T04:24:30.359Z,998.65
2023-04-13T04:25:34.576Z,998.68
2023-04-13T04:26:38.882Z,998.70
2023-04-13T04:27:43.227Z,998.70
2023-04-13T04:28:47.431Z,998.72
2023-04-13T04:29:51.756Z,998.73
2023-04-13T04:30:55.994Z,998.73
2023-04-13T04:32:00.321Z,998.75
2023-04-13T04:33:04.444Z,998.76
2023-04-13T04:34:08.752Z,998.75
2023-04-13T04:35:12.979Z,998.75
2023-04-13T04:36:17.277Z,998.77
2023-04-13T04:37:21.547Z,998.78
2023-04-13T04:38:25.746Z,998.80
2023-04-13T04:39:30.053Z,998.80
2023-04-13T04:40:34.343Z,998.84
2023-04-13T04:41:38.578Z,998.89
2023-04-13T04:42:42.766Z,998.90
2023-04-13T04:43:47.123Z,998.92
2023-04-13T04:44:51.360Z,998.93
2023-04-13T04:45:55.622Z,998.90
2023-04-13T04:46:59.748Z,998.90
2023-04-13T04:48:04.160Z,998.91
2023-04-13T04:49:08.243Z,998.95
2023-04-13T04:50:12.527Z,998.97
2023-04-13T04:51:16.781Z,998.96
2023-04-13T04:52:21.674Z,998.97
2023-04-13T04:53:25.212Z,998.97
2023-04-13T04:54:29.408Z,998.97
2023-04-13T04:55:33.688Z,998.99
2023-04-13T04:56:37.892Z,999.00
2023-04-13T04:57:42.137Z,999.03
2023-04-13T04:58:46.346Z,999.05
2023-04-13T04:59:50.680Z,999.07
2023-04-13T05:00:54.955Z,999.07
2023-04-13T05:01:59.107Z,999.06
2023-04-13T05:03:03.405Z,999.04
2023-04-13T05:04:07.574Z,999.02
2023-04-13T05:05:11.965Z,999.01
2023-04-13T05:06:16.096Z,999.00
2023-04-13T05:07:20.240Z,999.02
2023-04-13T05:08:24.483Z,999.07
2023-04-13T05:09:42.814Z,999.08
2023-04-13T05:10:45.956Z,999.09
2023-04-13T05:11:50.107Z,999.11
2023-04-13T05:12:54.327Z,999.10
2023-04-13T05:13:58.596Z,999.10
2023-04-13T05:15:02.940Z,999.07
2023-04-13T05:16:07.195Z,999.05
2023-04-13T05:17:11.349Z,999.03
2023-04-13T05:18:15.680Z,999.01
2023-04-13T05:19:19.962Z,999.00
2023-04-13T05:20:24.138Z,999.00
2023-04-13T05:21:28.528Z,999.03
2023-04-13T05:22:32.657Z,999.00
2023-04-13T05:23:36.843Z,999.00
2023-04-13T05:24:41.189Z,998.98
2023-04-13T05:25:45.451Z,998.99
2023-04-13T05:26:49.775Z,999.00
2023-04-13T05:27:54.011Z,999.01
2023-04-13T05:28:58.413Z,999.01
2023-04-13T05:30:02.440Z,999.01
2023-04-13T05:31:06.680Z,999.03
2023-04-13T05:32:11.040Z,999.05
2023-04-13T05:33:15.220Z,999.06
2023-04-13T05:34:19.493Z,999.09
2023-04-13T05:35:23.744Z,999.11
2023-04-13T05:36:28.001Z,999.10
2023-04-13T05:37:32.108Z,999.14
2023-04-13T05:38:36.412Z,999.14
2023-04-13T05:39:40.781Z,999.16
2023-04-13T05:40:45.004Z,999.11
2023-04-13T05:41:49.368Z,999.10
2023-04-13T05:42:53.511Z,999.10
2023-04-13T05:43:58.676Z,999.08
2023-04-13T05:45:02.533Z,999.07
2023-04-13T05:46:06.776Z,999.07
2023-04-13T05:47:11.017Z,999.09
2023-04-13T05:48:15.376Z,999.09
2023-04-13T05:49:19.654Z,999.07
2023-04-13T05:50:23.811Z,999.05
2023-04-13T05:51:28.191Z,999.03
2023-04-13T05:52:32.380Z,999.04
2023-04-13T05:53:36.713Z,999.05
2023-04-13T05:54:40.996Z,999.03
2023-04-13T05:55:47.573Z,999.02
2023-04-13T05:56:49.430Z,999.03
2023-04-13T05:58:07.772Z,999.01
2023-04-13T05:59:10.879Z,998.99
2023-04-13T06:00:14.942Z,999.00
2023-04-13T06:01:19.214Z,999.02
2023-04-13T06:02:23.655Z,999.04
2023-04-13T06:03:27.942Z,999.05
2023-04-13T06:04:32.211Z,999.05
2023-04-13T06:05:36.169Z,999.10
2023-04-13T06:06:40.485Z,999.14
2023-04-13T06:07:44.785Z,999.20
2023-04-13T06:08:49.102Z,999.23
2023-04-13T06:09:53.395Z,999.27
2023-04-13T06:10:57.688Z,999.30
2023-04-13T06:12:01.893Z,999.35
2023-04-13T06:13:06.160Z,999.38
2023-04-13T06:14:10.444Z,999.41
2023-04-13T06:15:14.786Z,999.40
2023-04-13T06:16:19.108Z,999.40
2023-04-13T06:17:23.370Z,999.41
2023-04-13T06:18:27.669Z,999.43
2023-04-13T06:19:31.986Z,999.46
2023-04-13T06:20:36.287Z,999.44
2023-04-13T06:21:40.496Z,999.47
2023-04-13T06:22:44.798Z,999.45
2023-04-13T06:23:49.147Z,999.43
2023-04-13T06:24:53.406Z,999.42
2023-04-13T06:25:57.786Z,999.39
2023-04-13T06:27:01.990Z,999.40
2023-04-13T06:28:06.267Z,999.37
2023-04-13T06:29:10.688Z,999.40
2023-04-13T06:30:14.925Z,999.41
2023-04-13T06:31:19.270Z,999.40
2023-04-13T06:32:23.458Z,999.42
2023-04-13T06:33:27.806Z,999.40
2023-04-13T06:34:32.167Z,999.41
2023-04-13T06:35:42.497Z,999.42
2023-04-13T06:36:45.373Z,999.42
2023-04-13T06:37:49.519Z,999.39
2023-04-13T06:38:53.801Z,999.40
2023-04-13T06:39:58.085Z,999.43
2023-04-13T06:41:02.354Z,999.41
2023-04-13T06:42:06.604Z,999.40
2023-04-13T06:43:18.890Z,999.39
2023-04-13T06:44:15.201Z,999.40
2023-04-13T06:45:19.380Z,999.41
2023-04-13T06:46:23.801Z,999.37
2023-04-13T06:47:28.063Z,999.41
2023-04-13T06:48:32.278Z,999.42
2023-04-13T06:49:36.561Z,999.39
2023-04-13T06:50:40.760Z,999.41
2023-04-13T06:51:45.031Z,999.42
2023-04-13T06:52:49.310Z,999.39
2023-04-13T06:53:53.759Z,999.38
2023-04-13T06:55:00.930Z,999.41
2023-04-13T06:56:04.388Z,999.40
2023-04-13T06:57:08.664Z,999.40
2023-04-13T06:58:12.990Z,999.42
2023-04-13T06:59:17.240Z,999.44
2023-04-13T07:00:29.754Z,999.47
2023-04-13T07:01:26.636Z,999.47
2023-04-13T07:02:30.891Z,999.52
2023-04-13T07:03:35.171Z,999.54
2023-04-13T07:04:39.523Z,999.55
2023-04-13T07:05:43.535Z,999.58
2023-04-13T07:06:47.783Z,999.60
2023-04-13T07:07:52.116Z,999.64
2023-04-13T07:08:56.601Z,999.65
2023-04-13T07:10:00.844Z,999.72
2023-04-13T07:11:04.984Z,999.75
2023-04-13T07:12:09.236Z,999.79
2023-04-13T07:13:13.550Z,999.75
2023-04-13T07:14:17.763Z,999.76
2023-04-13T07:15:22.024Z,999.80
2023-04-13T07:16:26.494Z,999.78
2023-04-13T07:17:30.657Z,999.84
2023-04-13T07:18:34.839Z,999.86
2023-04-13T07:19:39.095Z,999.79
2023-04-13T07:20:43.470Z,999.76
2023-04-13T07:21:47.653Z,999.78
2023-04-13T07:22:51.910Z,999.82
2023-04-13T07:23:56.066Z,999.79
2023-04-13T07:25:00.386Z,999.80
2023-04-13T07:26:04.714Z,999.75
2023-04-13T07:27:08.948Z,999.76
2023-04-13T07:28:13.228Z,999.78
2023-04-13T07:29:17.496Z,999.82
2023-04-13T07:30:35.856Z,999.80
2023-04-13T07:31:38.917Z,999.81
2023-04-13T07:32:43.236Z,999.83
2023-04-13T07:33:53.528Z,999.87
2023-04-13T07:34:56.387Z,999.91
2023-04-13T07:36:00.788Z,999.87
2023-04-13T07:37:04.859Z,999.88
2023-04-13T07:38:09.097Z,999.88
2023-04-13T07:39:13.482Z,999.90
2023-04-13T07:40:20.721Z,999.90
2023-04-13T07:41:24.130Z,999.91
2023-04-13T07:42:28.384Z,999.93
2023-04-13T07:43:32.594Z,999.96
2023-04-13T07:44:36.741Z,999.98
2023-04-13T07:45:41.139Z,1000.00
2023-04-13T07:46:45.398Z,1000.03
2023-04-13T07:47:49.735Z,1000.01
2023-04-13T07:48:54.012Z,1000.03
2023-04-13T07:49:58.304Z,1000.08
2023-04-13T07:51:02.653Z,1000.08
2023-04-13T07:52:06.895Z,1000.11
2023-04-13T07:53:11.224Z,1000.11
2023-04-13T07:54:16.687Z,1000.11
2023-04-13T07:55:19.724Z,1000.06
2023-04-13T07:56:24.051Z,1000.07
2023-04-13T07:57:28.309Z,1000.07
2023-04-13T07:58:32.589Z,1000.09
2023-04-13T07:59:36.865Z,1000.08
2023-04-13T08:00:41.102Z,1000.07
2023-04-13T08:01:45.421Z,1000.13
2023-04-13T08:02:49.942Z,1000.12
2023-04-13T08:03:54.173Z,1000.15
2023-04-13T08:04:58.348Z,1000.17
2023-04-13T08:06:02.548Z,1000.17
2023-04-13T08:07:06.818Z,1000.20
2023-04-13T08:08:11.252Z,1000.19
2023-04-13T08:09:15.448Z,1000.20
2023-04-13T08:10:19.715Z,1000.18
2023-04-13T08:11:23.976Z,1000.22
2023-04-13T08:12:28.239Z,1000.17
2023-04-13T08:13:32.474Z,1000.17
2023-04-13T08:14:36.802Z,1000.20
2023-04-13T08:15:41.045Z,1000.21
2023-04-13T08:16:45.401Z,1000.19
2023-04-13T08:17:49.643Z,1000.15
2023-04-13T08:18:53.990Z,1000.16
2023-04-13T08:19:58.220Z,1000.13
2023-04-13T08:21:02.456Z,1000.10
2023-04-13T08:22:06.739Z,1000.14
2023-04-13T08:23:12.475Z,1000.16
2023-04-13T08:24:15.436Z,1000.18
2023-04-13T08:25:19.623Z,1000.20
2023-04-13T08:26:29.937Z,1000.19
2023-04-13T08:27:32.820Z,1000.21
2023-04-13T08:28:37.091Z,1000.20
2023-04-13T08:29:41.484Z,1000.21
2023-04-13T08:30:45.757Z,1000.22
2023-04-13T08:31:50.150Z,1000.19
2023-04-13T08:32:54.467Z,1000.22
2023-04-13T08:33:58.671Z,1000.21
2023-04-13T08:35:02.927Z,1000.23
2023-04-13T08:36:07.171Z,1000.26
2023-04-13T08:37:11.508Z,1000.23
2023-04-13T08:38:15.835Z,1000.21
2023-04-13T08:39:20.057Z,1000.20
2023-04-13T08:40:24.275Z,1000.20
2023-04-13T08:41:28.554Z,1000.24
2023-04-13T08:42:32.826Z,1000.24
2023-04-13T08:43:51.093Z,1000.21
2023-04-13T08:44:54.088Z,1000.25
2023-04-13T08:45:58.337Z,1000.24
2023-04-13T08:47:02.689Z,1000.28
2023-04-13T08:48:07.004Z,1000.27
2023-04-13T08:49:11.197Z,1000.29
2023-04-13T08:50:15.584Z,1000.28
2023-04-13T08:51:33.935Z,1000.30
2023-04-13T08:52:37.147Z,1000.29
2023-04-13T08:53:41.414Z,1000.30
2023-04-13T08:54:45.674Z,1000.31
2023-04-13T08:55:49.900Z,1000.32
2023-04-13T08:57:08.307Z,1000.33
2023-04-13T08:58:11.475Z,1000.35
2023-04-13T08:59:15.996Z,1000.31
2023-04-13T09:00:19.926Z,1000.30
2023-04-13T09:01:24.192Z,1000.29
2023-04-13T09:02:28.749Z,1000.27
2023-04-13T09:03:32.836Z,1000.28
2023-04-13T09:04:37.070Z,1000.30
2023-04-13T09:05:41.364Z,1000.28
2023-04-13T09:06:45.643Z,1000.29
2023-04-13T09:07:49.896Z,1000.32
2023-04-13T09:08:54.232Z,1000.33
2023-04-13T09:09:58.540Z,1000.32
2023-04-13T09:11:02.818Z,1000.29
2023-04-13T09:12:07.026Z,1000.29
2023-04-13T09:13:11.289Z,1000.30
2023-04-13T09:14:21.694Z,1000.32
2023-04-13T09:15:24.665Z,1000.35
2023-04-13T09:16:28.844Z,1000.37
2023-04-13T09:17:33.111Z,1000.38
2023-04-13T09:18:37.310Z,1000.37
2023-04-13T09:19:41.690Z,1000.39
2023-04-13T09:20:46.030Z,1000.43
2023-04-13T09:21:50.486Z,1000.50
2023-04-13T09:23:08.606Z,1000.49
2023-04-13T09:24:12.177Z,1000.48
2023-04-13T09:25:16.262Z,1000.49
2023-04-13T09:26:20.444Z,1000.52
2023-04-13T09:27:24.864Z,1000.53
2023-04-13T09:28:29.119Z,1000.57
2023-04-13T09:29:33.343Z,1000.57
2023-04-13T09:30:37.698Z,1000.58
2023-04-13T09:31:44.914Z,1000.59
2023-04-13T09:32:46.286Z,1000.64
2023-04-13T09:33:50.703Z,1000.57
2023-04-13T09:34:54.952Z,1000.54
2023-04-13T09:35:59.221Z,1000.52
2023-04-13T09:37:03.550Z,1000.48
2023-04-13T09:38:07.848Z,1000.46
2023-04-13T09:39:12.110Z,1000.49
2023-04-13T09:40:16.440Z,1000.50
2023-04-13T09:41:20.703Z,1000.50
2023-04-13T09:42:25.010Z,1000.49
2023-04-13T09:43:29.343Z,1000.51
2023-04-13T09:44:33.664Z,1000.52
2023-04-13T09:45:37.948Z,1000.55
2023-04-13T09:46:42.431Z,1000.57
2023-04-13T09:47:46.591Z,1000.57
2023-04-13T09:48:50.842Z,1000.59
2023-04-13T09:49:55.147Z,1000.63
2023-04-13T09:51:15.630Z,1000.66
2023-04-13T09:52:21.916Z,1000.70
2023-04-13T09:53:25.279Z,1000.71
2023-04-13T09:54:29.460Z,1000.73
2023-04-13T09:55:33.757Z,1000.72
2023-04-13T09:56:38.194Z,1000.72
2023-04-13T09:57:42.412Z,1000.75
2023-04-13T09:58:46.765Z,1000.77
2023-04-13T09:59:51.061Z,1000.78
2023-04-13T10:00:55.429Z,1000.82
2023-04-13T10:01:59.750Z,1000.86
2023-04-13T10:03:04.152Z,1000.85
2023-04-13T10:04:08.246Z,1000.86
2023-04-13T10:05:12.671Z,1000.88
2023-04-13T10:06:16.837Z,1000.89
2023-04-13T10:07:21.188Z,1000.91
2023-04-13T10:08:36.634Z,1000.94
2023-04-13T10:09:29.778Z,1000.97
2023-04-13T10:10:34.141Z,1000.96
2023-04-13T10:11:38.475Z,1000.97
2023-04-13T10:12:42.773Z,1000.97
2023-04-13T10:13:47.133Z,1000.99
2023-04-13T10:14:51.399Z,1001.00
2023-04-13T10:15:57.301Z,1001.01
2023-04-13T10:16:59.948Z,1001.01
2023-04-13T10:18:04.379Z,1001.02
2023-04-13T10:19:08.513Z,1001.04
2023-04-13T10:20:18.837Z,1001.03
2023-04-13T10:21:21.862Z,1001.00
2023-04-13T10:22:25.992Z,1001.03
2023-04-13T10:23:30.420Z,1001.04
2023-04-13T10:24:34.684Z,1001.02
2023-04-13T10:26:43.327Z,1001.03
2023-04-13T10:27:47.725Z,1001.05
2023-04-13T10:28:51.960Z,1001.04
2023-04-13T10:29:56.264Z,1001.05
2023-04-13T10:31:00.557Z,1001.07
2023-04-13T10:32:05.066Z,1001.08
2023-04-13T10:33:23.176Z,1001.13
2023-04-13T10:34:26.073Z,1001.14
2023-04-13T10:35:30.269Z,1001.16
2023-04-13T10:36:34.497Z,1001.14
2023-04-13T10:37:38.756Z,1001.15
2023-04-13T10:38:43.077Z,1001.16
2023-04-13T10:39:47.324Z,1001.17
2023-04-13T10:40:51.576Z,1001.18
2023-04-13T10:41:55.965Z,1001.18
2023-04-13T10:43:00.296Z,1001.18
2023-04-13T10:44:04.528Z,1001.18
2023-04-13T10:45:08.780Z,1001.21
2023-04-13T10:46:13.157Z,1001.21
2023-04-13T10:47:25.049Z,1001.23
2023-04-13T10:48:26.274Z,1001.24
2023-04-13T10:49:30.531Z,1001.27
2023-04-13T10:50:34.767Z,1001.28
2023-04-13T10:51:39.055Z,1001.29
2023-04-13T10:52:43.336Z,1001.31
2023-04-13T10:53:47.690Z,1001.31
2023-04-13T10:54:52.001Z,1001.38
2023-04-13T10:55:56.231Z,1001.37
2023-04-13T10:57:00.640Z,1001.38
2023-04-13T10:58:05.076Z,1001.38
2023-04-13T10:59:09.229Z,1001.39
2023-04-13T11:00:13.558Z,1001.44
2023-04-13T11:01:17.898Z,1001.41
2023-04-13T11:02:25.307Z,1001.38
2023-04-13T11:03:28.858Z,1001.38
2023-04-13T11:04:32.821Z,1001.40
2023-04-13T11:05:37.050Z,1001.44
2023-04-13T11:06:41.389Z,1001.42
2023-04-13T11:07:45.653Z,1001.44
2023-04-13T11:08:49.958Z,1001.43
2023-04-13T11:09:54.263Z,1001.40
2023-04-13T11:10:58.629Z,1001.42
2023-04-13T11:12:02.910Z,1001.45
2023-04-13T11:13:07.146Z,1001.44
2023-04-13T11:14:11.466Z,1001.45
2023-04-13T11:15:15.823Z,1001.46
2023-04-13T11:16:20.229Z,1001.43
2023-04-13T11:17:24.677Z,1001.44
2023-04-13T11:18:28.823Z,1001.44
2023-04-13T11:19:33.054Z,1001.39
2023-04-13T11:20:37.413Z,1001.41
2023-04-13T11:21:41.630Z,1001.43
2023-04-13T11:22:47.351Z,1001.42
2023-04-13T11:24:04.300Z,1001.42
2023-04-13T11:25:07.319Z,1001.41
2023-04-13T11:26:11.612Z,1001.42
2023-04-13T11:27:15.896Z,1001.45
2023-04-13T11:28:20.268Z,1001.45
2023-04-13T11:29:24.517Z,1001.49
2023-04-13T11:30:28.851Z,1001.51
2023-04-13T11:31:33.189Z,1001.52
2023-04-13T11:32:43.646Z,1001.55
2023-04-13T11:33:46.472Z,1001.58
2023-04-13T11:34:50.757Z,1001.58
2023-04-13T11:35:55.037Z,1001.58
2023-04-13T11:36:59.427Z,1001.57
2023-04-13T11:38:03.691Z,1001.54
2023-04-13T11:39:10.132Z,1001.57
2023-04-13T11:40:12.286Z,1001.58
2023-04-13T11:41:17.503Z,1001.57
2023-04-13T11:42:20.878Z,1001.59
2023-04-13T11:43:25.281Z,1001.61
2023-04-13T11:44:29.574Z,1001.61
2023-04-13T11:45:33.835Z,1001.61
2023-04-13T11:46:38.243Z,1001.61
2023-04-13T11:47:48.441Z,1001.63
2023-04-13T11:48:51.356Z,1001.60
2023-04-13T11:49:55.530Z,1001.60
2023-04-13T11:50:59.883Z,1001.62
2023-04-13T11:52:04.181Z,1001.64
2023-04-13T11:53:08.521Z,1001.62
2023-04-13T11:54:12.883Z,1001.64
2023-04-13T11:55:23.141Z,1001.63
2023-04-13T11:56:21.472Z,1001.66
2023-04-13T11:57:25.842Z,1001.69
2023-04-13T11:58:36.078Z,1001.68
2023-04-13T11:59:39.041Z,1001.68
2023-04-13T12:00:43.285Z,1001.68
2023-04-13T12:01:50.212Z,1001.69
2023-04-13T12:04:07.804Z,1001.71
2023-04-13T12:05:00.522Z,1001.73
2023-04-13T12:06:07.950Z,1001.77
2023-04-13T12:07:25.724Z,1001.79
2023-04-13T12:08:28.732Z,1001.81
2023-04-13T12:09:54.671Z,1001.82
2023-04-13T12:10:42.970Z,1001.83
2023-04-13T12:11:44.211Z,1001.87
2023-04-13T12:12:53.175Z,1001.87
2023-04-13T12:14:05.828Z,1001.85
2023-04-13T12:15:06.795Z,1001.85
2023-04-13T12:16:08.484Z,1001.86
2023-04-13T12:17:12.376Z,1001.88
2023-04-13T12:19:13.501Z,1001.93
2023-04-13T12:20:15.989Z,1001.91
2023-04-13T12:21:20.766Z,1001.90
2023-04-13T12:22:24.478Z,1001.90
2023-04-13T12:23:28.799Z,1001.90
2023-04-13T12:24:33.103Z,1001.96
2023-04-13T12:27:18.513Z,1002.03
2023-04-13T12:28:12.902Z,1002.03
2023-04-13T12:29:17.145Z,1002.08
2023-04-13T12:30:21.612Z,1002.11
2023-04-13T12:31:25.830Z,1002.10
2023-04-13T12:32:30.228Z,1002.11
2023-04-13T12:33:40.525Z,1002.14
2023-04-13T12:34:43.542Z,1002.14
2023-04-13T12:35:47.703Z,1002.19
2023-04-13T12:36:51.992Z,1002.20
2023-04-13T12:37:56.269Z,1002.24
2023-04-13T12:39:00.764Z,1002.25
2023-04-13T12:40:04.914Z,1002.25
2023-04-13T12:41:09.184Z,1002.27
2023-04-13T12:42:13.510Z,1002.30
2023-04-13T12:43:17.824Z,1002.30
2023-04-13T12:44:22.047Z,1002.30
2023-04-13T12:45:40.420Z,1002.32
2023-04-13T12:46:43.661Z,1002.35
2023-04-13T12:47:47.851Z,1002.36
2023-04-13T12:48:52.123Z,1002.39
2023-04-13T12:49:56.367Z,1002.41
2023-04-13T12:51:00.659Z,1002.44
2023-04-13T12:52:04.896Z,1002.45
2023-04-13T12:53:09.210Z,1002.46
2023-04-13T12:54:13.518Z,1002.47
2023-04-13T12:55:17.769Z,1002.45
2023-04-13T12:56:22.092Z,1002.46
2023-04-13T12:58:53.464Z,1002.45
2023-04-13T12:59:57.696Z,1002.46
2023-04-13T13:01:02.018Z,1002.44
2023-04-13T13:02:06.369Z,1002.43
2023-04-13T13:03:14.060Z,1002.44
2023-04-13T13:04:28.926Z,1002.45
2023-04-13T13:05:32.051Z,1002.47
2023-04-13T13:06:36.216Z,1002.49
2023-04-13T13:07:40.483Z,1002.50
2023-04-13T13:08:44.781Z,1002.49
2023-04-13T13:09:49.014Z,1002.50
2023-04-13T13:10:53.411Z,1002.49
2023-04-13T13:11:57.593Z,1002.52
2023-04-13T13:13:01.951Z,1002.56
2023-04-13T13:14:06.163Z,1002.56
2023-04-13T13:15:10.442Z,1002.59
2023-04-13T13:16:14.831Z,1002.60
2023-04-13T13:17:19.022Z,1002.61
2023-04-13T13:18:23.272Z,1002.63
2023-04-13T13:19:27.520Z,1002.63
2023-04-13T13:20:31.772Z,1002.63
2023-04-13T13:21:36.070Z,1002.64